sensor_id;sensor_type;location;lat;lon;timestamp;temperature;humidity
66594;DHT22;53450;42.584;23.366;2023-03-20T00:00:30;3.03;68.24
66594;DHT22;53450;42.584;23.366;2023-03-20T00:02:56;3.10;68.78
66594;DHT22;53450;42.584;23.366;2023-03-20T00:05:23;3.07;68.78
66594;DHT22;53450;42.584;23.366;2023-03-20T00:07:49;3.09;68.82
66594;DHT22;53450;42.584;23.366;2023-03-20T00:10:16;3.13;68.44
66594;DHT22;53450;42.584;23.366;2023-03-20T00:12:43;3.12;68.48
66594;DHT22;53450;42.584;23.366;2023-03-20T00:15:21;3.06;68.69
66594;DHT22;53450;42.584;23.366;2023-03-20T00:17:48;3.05;68.86
66594;DHT22;53450;42.584;23.366;2023-03-20T00:20:14;3.06;68.74
66594;DHT22;53450;42.584;23.366;2023-03-20T00:22:40;3.06;69.11
66594;DHT22;53450;42.584;23.366;2023-03-20T00:25:06;3.00;69.14
66594;DHT22;53450;42.584;23.366;2023-03-20T00:27:32;3.05;69.05
66594;DHT22;53450;42.584;23.366;2023-03-20T00:29:57;3.02;69.04
66594;DHT22;53450;42.584;23.366;2023-03-20T00:32:49;3.00;69.29
66594;DHT22;53450;42.584;23.366;2023-03-20T00:35:26;3.00;69.36
66594;DHT22;53450;42.584;23.366;2023-03-20T00:37:53;2.93;68.92
66594;DHT22;53450;42.584;23.366;2023-03-20T00:40:19;2.95;69.60
66594;DHT22;53450;42.584;23.366;2023-03-20T00:42:49;3.00;68.96
66594;DHT22;53450;42.584;23.366;2023-03-20T00:45:18;2.92;69.50
66594;DHT22;53450;42.584;23.366;2023-03-20T00:47:47;2.89;69.28
66594;DHT22;53450;42.584;23.366;2023-03-20T00:50:18;2.82;69.85
66594;DHT22;53450;42.584;23.366;2023-03-20T00:52:45;2.78;69.78
66594;DHT22;53450;42.584;23.366;2023-03-20T00:55:11;2.75;69.92
66594;DHT22;53450;42.584;23.366;2023-03-20T00:57:41;2.76;69.95
66594;DHT22;53450;42.584;23.366;2023-03-20T01:00:19;2.69;70.50
66594;DHT22;53450;42.584;23.366;2023-03-20T01:02:46;2.64;70.80
66594;DHT22;53450;42.584;23.366;2023-03-20T01:05:12;2.61;70.58
66594;DHT22;53450;42.584;23.366;2023-03-20T01:07:38;2.64;69.90
66594;DHT22;53450;42.584;23.366;2023-03-20T01:10:04;2.71;69.58
66594;DHT22;53450;42.584;23.366;2023-03-20T01:12:29;2.72;69.77
66594;DHT22;53450;42.584;23.366;2023-03-20T01:14:56;2.69;69.78
66594;DHT22;53450;42.584;23.366;2023-03-20T01:17:24;2.68;69.38
66594;DHT22;53450;42.584;23.366;2023-03-20T01:19:50;2.75;69.41
66594;DHT22;53450;42.584;23.366;2023-03-20T01:22:16;2.78;69.61
66594;DHT22;53450;42.584;23.366;2023-03-20T01:24:45;2.75;69.15
66594;DHT22;53450;42.584;23.366;2023-03-20T01:27:16;2.71;69.48
66594;DHT22;53450;42.584;23.366;2023-03-20T01:29:43;2.68;69.72
66594;DHT22;53450;42.584;23.366;2023-03-20T01:32:12;2.65;69.45
66594;DHT22;53450;42.584;23.366;2023-03-20T01:35:02;2.66;69.60
66594;DHT22;53450;42.584;23.366;2023-03-20T01:37:54;2.64;69.86
66594;DHT22;53450;42.584;23.366;2023-03-20T01:40:29;2.65;70.04
66594;DHT22;53450;42.584;23.366;2023-03-20T01:42:57;2.65;70.07
66594;DHT22;53450;42.584;23.366;2023-03-20T01:45:36;2.66;70.26
66594;DHT22;53450;42.584;23.366;2023-03-20T01:48:15;2.66;69.87
66594;DHT22;53450;42.584;23.366;2023-03-20T01:50:41;2.69;69.61
66594;DHT22;53450;42.584;23.366;2023-03-20T01:53:21;2.61;70.77
66594;DHT22;53450;42.584;23.366;2023-03-20T01:55:55;2.62;70.10
66594;DHT22;53450;42.584;23.366;2023-03-20T01:58:52;2.61;70.10
66594;DHT22;53450;42.584;23.366;2023-03-20T02:01:19;2.59;70.45
66594;DHT22;53450;42.584;23.366;2023-03-20T02:03:49;2.59;70.17
66594;DHT22;53450;42.584;23.366;2023-03-20T02:06:34;2.52;70.62
66594;DHT22;53450;42.584;23.366;2023-03-20T02:09:30;2.52;70.61
66594;DHT22;53450;42.584;23.366;2023-03-20T02:11:58;2.49;70.73
66594;DHT22;53450;42.584;23.366;2023-03-20T02:14:25;2.45;70.75
66594;DHT22;53450;42.584;23.366;2023-03-20T02:17:11;2.38;71.32
66594;DHT22;53450;42.584;23.366;2023-03-20T02:42:55;2.14;72.21
66594;DHT22;53450;42.584;23.366;2023-03-20T02:50:57;2.13;72.16
66594;DHT22;53450;42.584;23.366;2023-03-20T02:57:04;2.23;72.23
66594;DHT22;53450;42.584;23.366;2023-03-20T03:02:34;2.17;71.94
66594;DHT22;53450;42.584;23.366;2023-03-20T03:05:06;2.11;72.12
66594;DHT22;53450;42.584;23.366;2023-03-20T03:07:34;2.10;72.47
66594;DHT22;53450;42.584;23.366;2023-03-20T03:10:05;2.07;72.24
66594;DHT22;53450;42.584;23.366;2023-03-20T03:12:37;2.10;72.26
66594;DHT22;53450;42.584;23.366;2023-03-20T03:15:06;2.06;72.54
66594;DHT22;53450;42.584;23.366;2023-03-20T03:18:01;2.06;72.55
66594;DHT22;53450;42.584;23.366;2023-03-20T03:20:37;2.03;72.65
66594;DHT22;53450;42.584;23.366;2023-03-20T03:23:04;2.07;72.59
66594;DHT22;53450;42.584;23.366;2023-03-20T03:25:39;2.09;72.60
66594;DHT22;53450;42.584;23.366;2023-03-20T03:28:27;2.07;72.30
66594;DHT22;53450;42.584;23.366;2023-03-20T03:31:20;1.99;72.45
66594;DHT22;53450;42.584;23.366;2023-03-20T03:34:14;1.99;72.62
66594;DHT22;53450;42.584;23.366;2023-03-20T03:41:51;2.03;72.28
66594;DHT22;53450;42.584;23.366;2023-03-20T03:49:59;1.90;73.20
66594;DHT22;53450;42.584;23.366;2023-03-20T03:52:28;1.89;73.24
66594;DHT22;53450;42.584;23.366;2023-03-20T03:54:57;1.97;73.12
66594;DHT22;53450;42.584;23.366;2023-03-20T03:57:39;2.05;72.89
66594;DHT22;53450;42.584;23.366;2023-03-20T04:00:10;2.09;72.52
66594;DHT22;53450;42.584;23.366;2023-03-20T04:02:44;2.05;72.47
66594;DHT22;53450;42.584;23.366;2023-03-20T04:05:12;1.97;72.67
66594;DHT22;53450;42.584;23.366;2023-03-20T04:07:44;2.05;72.46
66594;DHT22;53450;42.584;23.366;2023-03-20T04:10:10;2.06;71.91
66594;DHT22;53450;42.584;23.366;2023-03-20T04:12:41;2.03;72.14
66594;DHT22;53450;42.584;23.366;2023-03-20T04:15:09;1.95;72.52
66594;DHT22;53450;42.584;23.366;2023-03-20T04:17:35;1.90;72.61
66594;DHT22;53450;42.584;23.366;2023-03-20T04:20:02;1.97;72.36
66594;DHT22;53450;42.584;23.366;2023-03-20T04:22:28;1.90;72.93
66594;DHT22;53450;42.584;23.366;2023-03-20T04:24:58;1.92;72.93
66594;DHT22;53450;42.584;23.366;2023-03-20T04:27:49;1.83;73.00
66594;DHT22;53450;42.584;23.366;2023-03-20T04:30:41;1.86;73.50
66594;DHT22;53450;42.584;23.366;2023-03-20T04:33:31;1.86;73.58
66594;DHT22;53450;42.584;23.366;2023-03-20T04:36:05;1.89;73.37
66594;DHT22;53450;42.584;23.366;2023-03-20T04:38:31;1.87;73.52
66594;DHT22;53450;42.584;23.366;2023-03-20T04:40:58;1.87;73.64
66594;DHT22;53450;42.584;23.366;2023-03-20T04:43:23;1.93;73.81
66594;DHT22;53450;42.584;23.366;2023-03-20T04:45:49;2.03;73.48
66594;DHT22;53450;42.584;23.366;2023-03-20T04:48:15;2.06;73.62
66594;DHT22;53450;42.584;23.366;2023-03-20T04:50:41;2.13;73.57
66594;DHT22;53450;42.584;23.366;2023-03-20T04:53:06;2.14;73.32
66594;DHT22;53450;42.584;23.366;2023-03-20T04:55:32;2.21;73.28
66594;DHT22;53450;42.584;23.366;2023-03-20T05:05:32;2.52;73.28
66594;DHT22;53450;42.584;23.366;2023-03-20T05:08:15;2.62;72.90
66594;DHT22;53450;42.584;23.366;2023-03-20T05:10:42;2.86;71.92
66594;DHT22;53450;42.584;23.366;2023-03-20T05:13:28;2.89;72.77
66594;DHT22;53450;42.584;23.366;2023-03-20T05:16:12;2.93;72.74
66594;DHT22;53450;42.584;23.366;2023-03-20T05:18:55;3.03;72.37
66594;DHT22;53450;42.584;23.366;2023-03-20T05:21:57;3.27;71.62
66594;DHT22;53450;42.584;23.366;2023-03-20T05:24:43;3.43;70.93
66594;DHT22;53450;42.584;23.366;2023-03-20T05:27:34;3.53;70.59
66594;DHT22;53450;42.584;23.366;2023-03-20T05:30:06;3.65;70.77
66594;DHT22;53450;42.584;23.366;2023-03-20T05:32:55;3.73;70.26
66594;DHT22;53450;42.584;23.366;2023-03-20T05:35:27;3.86;70.56
66594;DHT22;53450;42.584;23.366;2023-03-20T05:38:17;3.99;70.03
66594;DHT22;53450;42.584;23.366;2023-03-20T05:41:12;4.17;69.68
66594;DHT22;53450;42.584;23.366;2023-03-20T05:44:00;4.29;69.22
66594;DHT22;53450;42.584;23.366;2023-03-20T05:46:46;4.42;69.07
66594;DHT22;53450;42.584;23.366;2023-03-20T05:49:31;4.43;69.21
66594;DHT22;53450;42.584;23.366;2023-03-20T05:52:16;4.54;68.63
66594;DHT22;53450;42.584;23.366;2023-03-20T05:54:51;4.57;68.50
66594;DHT22;53450;42.584;23.366;2023-03-20T05:57:36;4.83;67.39
66594;DHT22;53450;42.584;23.366;2023-03-20T06:00:34;5.02;65.89
66594;DHT22;53450;42.584;23.366;2023-03-20T06:03:37;5.19;65.13
66594;DHT22;53450;42.584;23.366;2023-03-20T06:06:28;5.18;63.90
66594;DHT22;53450;42.584;23.366;2023-03-20T06:08:54;5.32;63.72
66594;DHT22;53450;42.584;23.366;2023-03-20T06:11:20;5.44;63.56
66594;DHT22;53450;42.584;23.366;2023-03-20T06:13:46;5.60;62.81
66594;DHT22;53450;42.584;23.366;2023-03-20T06:16:12;5.70;62.49
66594;DHT22;53450;42.584;23.366;2023-03-20T06:18:38;5.74;62.76
66594;DHT22;53450;42.584;23.366;2023-03-20T06:21:04;5.97;63.49
66594;DHT22;53450;42.584;23.366;2023-03-20T06:23:31;6.12;62.86
66594;DHT22;53450;42.584;23.366;2023-03-20T06:25:58;6.25;62.38
66594;DHT22;53450;42.584;23.366;2023-03-20T06:28:49;6.43;62.02
66594;DHT22;53450;42.584;23.366;2023-03-20T06:31:16;6.45;62.86
66594;DHT22;53450;42.584;23.366;2023-03-20T06:33:42;6.56;63.17
66594;DHT22;53450;42.584;23.366;2023-03-20T06:36:08;6.59;63.52
66594;DHT22;53450;42.584;23.366;2023-03-20T06:38:34;6.81;64.17
66594;DHT22;53450;42.584;23.366;2023-03-20T06:41:06;6.94;61.97
66594;DHT22;53450;42.584;23.366;2023-03-20T06:43:32;7.03;62.49
66594;DHT22;53450;42.584;23.366;2023-03-20T06:45:58;7.08;61.24
66594;DHT22;53450;42.584;23.366;2023-03-20T06:48:26;7.11;59.45
66594;DHT22;53450;42.584;23.366;2023-03-20T06:50:52;7.08;59.46
66594;DHT22;53450;42.584;23.366;2023-03-20T06:53:20;7.21;58.58
66594;DHT22;53450;42.584;23.366;2023-03-20T06:56:21;7.38;58.00
66594;DHT22;53450;42.584;23.366;2023-03-20T06:59:13;7.62;58.65
66594;DHT22;53450;42.584;23.366;2023-03-20T07:01:39;7.79;58.80
66594;DHT22;53450;42.584;23.366;2023-03-20T07:04:06;8.03;57.85
66594;DHT22;53450;42.584;23.366;2023-03-20T07:06:37;8.19;57.51
66594;DHT22;53450;42.584;23.366;2023-03-20T07:09:03;8.26;58.17
66594;DHT22;53450;42.584;23.366;2023-03-20T07:11:31;8.23;58.38
66594;DHT22;53450;42.584;23.366;2023-03-20T07:13:56;8.09;58.31
66594;DHT22;53450;42.584;23.366;2023-03-20T07:16:35;8.26;58.56
66594;DHT22;53450;42.584;23.366;2023-03-20T07:19:01;8.37;57.74
66594;DHT22;53450;42.584;23.366;2023-03-20T07:21:32;8.41;56.53
66594;DHT22;53450;42.584;23.366;2023-03-20T07:23:58;8.40;57.06
66594;DHT22;53450;42.584;23.366;2023-03-20T07:26:49;8.65;57.54
66594;DHT22;53450;42.584;23.366;2023-03-20T07:29:14;8.96;56.85
66594;DHT22;53450;42.584;23.366;2023-03-20T07:31:41;9.10;56.62
66594;DHT22;53450;42.584;23.366;2023-03-20T07:34:11;9.24;53.96
66594;DHT22;53450;42.584;23.366;2023-03-20T07:36:38;9.47;52.10
66594;DHT22;53450;42.584;23.366;2023-03-20T07:39:05;9.68;51.56
66594;DHT22;53450;42.584;23.366;2023-03-20T07:41:33;9.84;51.55
66594;DHT22;53450;42.584;23.366;2023-03-20T07:44:07;9.87;51.38
66594;DHT22;53450;42.584;23.366;2023-03-20T07:46:46;9.99;50.54
66594;DHT22;53450;42.584;23.366;2023-03-20T07:49:14;10.08;51.43
66594;DHT22;53450;42.584;23.366;2023-03-20T07:51:47;10.30;50.43
66594;DHT22;53450;42.584;23.366;2023-03-20T07:54:13;10.35;52.05
66594;DHT22;53450;42.584;23.366;2023-03-20T07:56:39;10.42;52.36
66594;DHT22;53450;42.584;23.366;2023-03-20T07:59:07;10.43;52.18
66594;DHT22;53450;42.584;23.366;2023-03-20T08:01:36;10.42;52.53
66594;DHT22;53450;42.584;23.366;2023-03-20T08:04:02;10.45;52.07
66594;DHT22;53450;42.584;23.366;2023-03-20T08:06:28;10.47;52.59
66594;DHT22;53450;42.584;23.366;2023-03-20T08:08:53;10.33;53.56
66594;DHT22;53450;42.584;23.366;2023-03-20T08:11:19;10.32;53.08
66594;DHT22;53450;42.584;23.366;2023-03-20T08:13:45;10.40;52.96
66594;DHT22;53450;42.584;23.366;2023-03-20T08:16:10;10.45;53.85
66594;DHT22;53450;42.584;23.366;2023-03-20T08:18:36;10.28;53.84
66594;DHT22;53450;42.584;23.366;2023-03-20T08:21:02;10.28;54.26
66594;DHT22;53450;42.584;23.366;2023-03-20T08:23:28;10.29;53.54
66594;DHT22;53450;42.584;23.366;2023-03-20T08:25:54;10.25;54.51
66594;DHT22;53450;42.584;23.366;2023-03-20T08:28:45;10.45;54.23
66594;DHT22;53450;42.584;23.366;2023-03-20T08:31:10;10.56;53.63
66594;DHT22;53450;42.584;23.366;2023-03-20T08:33:36;10.63;53.35
66594;DHT22;53450;42.584;23.366;2023-03-20T08:36:02;10.60;52.53
66594;DHT22;53450;42.584;23.366;2023-03-20T08:38:27;10.60;53.17
66594;DHT22;53450;42.584;23.366;2023-03-20T08:40:53;10.68;53.06
66594;DHT22;53450;42.584;23.366;2023-03-20T08:43:19;10.67;53.62
66594;DHT22;53450;42.584;23.366;2023-03-20T08:45:45;10.67;53.03
66594;DHT22;53450;42.584;23.366;2023-03-20T08:48:10;10.80;52.80
66594;DHT22;53450;42.584;23.366;2023-03-20T08:50:36;10.98;52.34
66594;DHT22;53450;42.584;23.366;2023-03-20T08:53:02;11.01;51.63
66594;DHT22;53450;42.584;23.366;2023-03-20T08:55:28;11.07;53.63
66594;DHT22;53450;42.584;23.366;2023-03-20T08:57:54;11.11;51.94
66594;DHT22;53450;42.584;23.366;2023-03-20T09:00:22;11.21;52.89
66594;DHT22;53450;42.584;23.366;2023-03-20T09:02:48;11.21;51.97
66594;DHT22;53450;42.584;23.366;2023-03-20T09:05:15;11.26;51.26
66594;DHT22;53450;42.584;23.366;2023-03-20T09:07:42;11.33;51.78
66594;DHT22;53450;42.584;23.366;2023-03-20T09:10:09;11.56;52.49
66594;DHT22;53450;42.584;23.366;2023-03-20T09:12:35;11.61;52.78
66594;DHT22;53450;42.584;23.366;2023-03-20T09:15:01;11.82;50.84
66594;DHT22;53450;42.584;23.366;2023-03-20T09:17:26;11.94;50.37
66594;DHT22;53450;42.584;23.366;2023-03-20T09:19:54;11.91;51.31
66594;DHT22;53450;42.584;23.366;2023-03-20T09:22:22;11.87;50.84
66594;DHT22;53450;42.584;23.366;2023-03-20T09:24:48;11.90;52.06
66594;DHT22;53450;42.584;23.366;2023-03-20T09:27:14;11.97;51.27
66594;DHT22;53450;42.584;23.366;2023-03-20T09:29:40;12.04;50.75
66594;DHT22;53450;42.584;23.366;2023-03-20T09:32:05;12.21;51.49
66594;DHT22;53450;42.584;23.366;2023-03-20T09:34:32;12.20;50.08
66594;DHT22;53450;42.584;23.366;2023-03-20T09:36:57;12.28;51.50
66594;DHT22;53450;42.584;23.366;2023-03-20T09:39:23;12.22;50.60
66594;DHT22;53450;42.584;23.366;2023-03-20T09:41:49;12.28;49.90
66594;DHT22;53450;42.584;23.366;2023-03-20T09:55:18;13.09;48.76
66594;DHT22;53450;42.584;23.366;2023-03-20T09:57:49;13.27;47.36
66594;DHT22;53450;42.584;23.366;2023-03-20T10:00:23;13.34;46.73
66594;DHT22;53450;42.584;23.366;2023-03-20T10:03:14;13.50;47.27
66594;DHT22;53450;42.584;23.366;2023-03-20T10:05:45;13.61;45.81
66594;DHT22;53450;42.584;23.366;2023-03-20T10:08:14;13.78;45.52
66594;DHT22;53450;42.584;23.366;2023-03-20T10:14:10;14.10;41.95
66594;DHT22;53450;42.584;23.366;2023-03-20T10:19:48;14.34;42.79
66594;DHT22;53450;42.584;23.366;2023-03-20T10:25:30;14.68;42.44
66594;DHT22;53450;42.584;23.366;2023-03-20T10:27:58;14.85;43.02
66594;DHT22;53450;42.584;23.366;2023-03-20T10:38:46;15.11;40.74
66594;DHT22;53450;42.584;23.366;2023-03-20T10:41:21;15.26;40.71
66594;DHT22;53450;42.584;23.366;2023-03-20T10:43:50;15.11;39.46
66594;DHT22;53450;42.584;23.366;2023-03-20T10:46:41;15.09;39.90
66594;DHT22;53450;42.584;23.366;2023-03-20T10:49:38;15.35;39.51
66594;DHT22;53450;42.584;23.366;2023-03-20T10:52:06;15.45;39.25
66594;DHT22;53450;42.584;23.366;2023-03-20T10:54:39;15.45;38.47
66594;DHT22;53450;42.584;23.366;2023-03-20T10:57:09;15.46;37.76
66594;DHT22;53450;42.584;23.366;2023-03-20T10:59:45;15.63;38.93
66594;DHT22;53450;42.584;23.366;2023-03-20T11:02:18;15.43;39.25
66594;DHT22;53450;42.584;23.366;2023-03-20T11:04:44;15.49;38.51
66594;DHT22;53450;42.584;23.366;2023-03-20T11:10:14;15.83;38.18
66594;DHT22;53450;42.584;23.366;2023-03-20T11:12:42;15.87;37.24
66594;DHT22;53450;42.584;23.366;2023-03-20T11:15:26;15.94;36.76
66594;DHT22;53450;42.584;23.366;2023-03-20T11:18:02;16.15;37.69
66594;DHT22;53450;42.584;23.366;2023-03-20T11:20:35;16.18;36.79
66594;DHT22;53450;42.584;23.366;2023-03-20T11:23:04;16.29;37.40
66594;DHT22;53450;42.584;23.366;2023-03-20T11:31:06;16.24;36.92
66594;DHT22;53450;42.584;23.366;2023-03-20T11:33:43;16.29;36.40
66594;DHT22;53450;42.584;23.366;2023-03-20T11:36:22;16.26;36.51
66594;DHT22;53450;42.584;23.366;2023-03-20T11:38:49;16.18;37.04
66594;DHT22;53450;42.584;23.366;2023-03-20T11:41:46;16.47;37.26
66594;DHT22;53450;42.584;23.366;2023-03-20T11:44:28;16.48;37.03
66594;DHT22;53450;42.584;23.366;2023-03-20T11:47:11;16.66;37.04
66594;DHT22;53450;42.584;23.366;2023-03-20T11:49:53;16.63;36.84
66594;DHT22;53450;42.584;23.366;2023-03-20T11:52:21;16.51;35.91
66594;DHT22;53450;42.584;23.366;2023-03-20T11:54:51;16.56;35.94
66594;DHT22;53450;42.584;23.366;2023-03-20T11:59:53;16.47;36.05
66594;DHT22;53450;42.584;23.366;2023-03-20T12:02:21;16.56;36.42
66594;DHT22;53450;42.584;23.366;2023-03-20T12:04:48;16.59;37.34
66594;DHT22;53450;42.584;23.366;2023-03-20T12:07:23;16.83;35.87
66594;DHT22;53450;42.584;23.366;2023-03-20T12:17:56;17.04;35.69
66594;DHT22;53450;42.584;23.366;2023-03-20T12:26:11;17.02;33.98
66594;DHT22;53450;42.584;23.366;2023-03-20T12:31:17;16.75;33.36
66594;DHT22;53450;42.584;23.366;2023-03-20T12:36:47;16.83;34.18
66594;DHT22;53450;42.584;23.366;2023-03-20T12:39:15;16.97;34.31
66594;DHT22;53450;42.584;23.366;2023-03-20T12:44:29;17.02;34.15
66594;DHT22;53450;42.584;23.366;2023-03-20T12:50:06;17.19;34.72
66594;DHT22;53450;42.584;23.366;2023-03-20T13:03:31;17.31;34.06
66594;DHT22;53450;42.584;23.366;2023-03-20T13:11:17;17.32;33.00
66594;DHT22;53450;42.584;23.366;2023-03-20T13:16:56;17.28;33.45
66594;DHT22;53450;42.584;23.366;2023-03-20T13:31:04;17.41;32.52
66594;DHT22;53450;42.584;23.366;2023-03-20T13:33:50;17.41;32.43
66594;DHT22;53450;42.584;23.366;2023-03-20T13:39:33;17.37;31.90
66594;DHT22;53450;42.584;23.366;2023-03-20T13:42:00;17.28;32.45
66594;DHT22;53450;42.584;23.366;2023-03-20T13:44:29;17.44;32.22
66594;DHT22;53450;42.584;23.366;2023-03-20T13:47:07;17.47;32.76
66594;DHT22;53450;42.584;23.366;2023-03-20T13:49:38;17.48;32.77
66594;DHT22;53450;42.584;23.366;2023-03-20T13:52:17;17.45;32.65
66594;DHT22;53450;42.584;23.366;2023-03-20T13:55:00;17.34;32.28
66594;DHT22;53450;42.584;23.366;2023-03-20T14:05:44;17.52;32.36
66594;DHT22;53450;42.584;23.366;2023-03-20T14:08:20;17.48;32.43
66594;DHT22;53450;42.584;23.366;2023-03-20T14:10:46;17.50;32.38
66594;DHT22;53450;42.584;23.366;2023-03-20T14:13:16;17.51;31.35
66594;DHT22;53450;42.584;23.366;2023-03-20T14:15:53;17.60;31.74
66594;DHT22;53450;42.584;23.366;2023-03-20T14:18:21;17.72;31.14
66594;DHT22;53450;42.584;23.366;2023-03-20T14:20:54;17.75;30.92
66594;DHT22;53450;42.584;23.366;2023-03-20T14:23:31;17.78;31.29
66594;DHT22;53450;42.584;23.366;2023-03-20T14:25:57;17.78;30.88
66594;DHT22;53450;42.584;23.366;2023-03-20T14:28:28;17.75;30.97
66594;DHT22;53450;42.584;23.366;2023-03-20T14:31:42;17.65;31.75
66594;DHT22;53450;42.584;23.366;2023-03-20T14:34:21;17.57;31.15
66594;DHT22;53450;42.584;23.366;2023-03-20T14:40:13;17.67;30.36
66594;DHT22;53450;42.584;23.366;2023-03-20T14:45:44;17.64;31.14
66594;DHT22;53450;42.584;23.366;2023-03-20T14:48:48;17.72;30.75
66594;DHT22;53450;42.584;23.366;2023-03-20T14:53:55;17.68;30.80
66594;DHT22;53450;42.584;23.366;2023-03-20T14:56:32;17.62;30.70
66594;DHT22;53450;42.584;23.366;2023-03-20T14:59:02;17.67;30.05
66594;DHT22;53450;42.584;23.366;2023-03-20T15:04:38;17.58;30.58
66594;DHT22;53450;42.584;23.366;2023-03-20T15:09:51;17.31;31.95
66594;DHT22;53450;42.584;23.366;2023-03-20T15:12:23;17.16;31.21
66594;DHT22;53450;42.584;23.366;2023-03-20T15:18:05;17.23;33.17
66594;DHT22;53450;42.584;23.366;2023-03-20T15:20:18;17.10;32.44
66594;DHT22;53450;42.584;23.366;2023-03-20T15:22:54;16.90;32.94
66594;DHT22;53450;42.584;23.366;2023-03-20T15:25:23;16.97;34.78
66594;DHT22;53450;42.584;23.366;2023-03-20T15:27:49;16.97;35.39
66594;DHT22;53450;42.584;23.366;2023-03-20T15:30:18;16.94;34.74
66594;DHT22;53450;42.584;23.366;2023-03-20T15:32:45;16.87;35.88
66594;DHT22;53450;42.584;23.366;2023-03-20T15:35:22;16.68;36.79
66594;DHT22;53450;42.584;23.366;2023-03-20T15:37:49;16.47;37.79
66594;DHT22;53450;42.584;23.366;2023-03-20T15:40:29;16.13;38.87
66594;DHT22;53450;42.584;23.366;2023-03-20T15:43:17;15.93;39.40
66594;DHT22;53450;42.584;23.366;2023-03-20T15:45:43;15.71;40.15
66594;DHT22;53450;42.584;23.366;2023-03-20T15:48:15;15.49;40.83
66594;DHT22;53450;42.584;23.366;2023-03-20T15:50:42;15.39;41.20
66594;DHT22;53450;42.584;23.366;2023-03-20T15:53:16;15.24;41.41
66594;DHT22;53450;42.584;23.366;2023-03-20T15:55:57;15.09;41.83
66594;DHT22;53450;42.584;23.366;2023-03-20T15:58:26;15.06;42.44
66594;DHT22;53450;42.584;23.366;2023-03-20T16:00:54;14.97;42.93
66594;DHT22;53450;42.584;23.366;2023-03-20T16:03:20;14.81;43.28
66594;DHT22;53450;42.584;23.366;2023-03-20T16:05:48;14.71;43.42
66594;DHT22;53450;42.584;23.366;2023-03-20T16:08:24;14.63;43.53
66594;DHT22;53450;42.584;23.366;2023-03-20T16:11:04;14.51;43.71
66594;DHT22;53450;42.584;23.366;2023-03-20T16:13:36;14.39;43.98
66594;DHT22;53450;42.584;23.366;2023-03-20T16:16:05;14.25;44.39
66594;DHT22;53450;42.584;23.366;2023-03-20T16:18:35;14.13;44.51
66594;DHT22;53450;42.584;23.366;2023-03-20T16:21:05;14.06;43.95
66594;DHT22;53450;42.584;23.366;2023-03-20T16:23:36;13.92;44.86
66594;DHT22;53450;42.584;23.366;2023-03-20T16:26:05;13.85;44.80
66594;DHT22;53450;42.584;23.366;2023-03-20T16:28:34;13.71;45.51
66594;DHT22;53450;42.584;23.366;2023-03-20T16:31:07;13.62;45.62
66594;DHT22;53450;42.584;23.366;2023-03-20T16:33:35;13.55;45.57
66594;DHT22;53450;42.584;23.366;2023-03-20T16:36:03;13.43;45.44
66594;DHT22;53450;42.584;23.366;2023-03-20T16:38:31;13.33;45.40
66594;DHT22;53450;42.584;23.366;2023-03-20T16:43:50;13.17;45.61
66594;DHT22;53450;42.584;23.366;2023-03-20T16:46:19;13.10;45.27
66594;DHT22;53450;42.584;23.366;2023-03-20T16:48:47;12.95;45.33
66594;DHT22;53450;42.584;23.366;2023-03-20T16:51:22;12.89;45.37
66594;DHT22;53450;42.584;23.366;2023-03-20T16:53:53;12.86;45.18
66594;DHT22;53450;42.584;23.366;2023-03-20T16:56:32;12.89;44.69
66594;DHT22;53450;42.584;23.366;2023-03-20T16:58:58;12.85;44.36
66594;DHT22;53450;42.584;23.366;2023-03-20T17:01:26;12.79;44.68
66594;DHT22;53450;42.584;23.366;2023-03-20T17:03:54;12.76;44.89
66594;DHT22;53450;42.584;23.366;2023-03-20T17:08:52;12.65;44.59
66594;DHT22;53450;42.584;23.366;2023-03-20T17:11:26;12.49;44.51
66594;DHT22;53450;42.584;23.366;2023-03-20T17:13:53;12.46;44.64
66594;DHT22;53450;42.584;23.366;2023-03-20T17:16:20;12.38;44.85
66594;DHT22;53450;42.584;23.366;2023-03-20T17:18:47;12.18;45.00
66594;DHT22;53450;42.584;23.366;2023-03-20T17:21:22;12.17;45.12
66594;DHT22;53450;42.584;23.366;2023-03-20T17:23:47;12.14;45.64
66594;DHT22;53450;42.584;23.366;2023-03-20T17:26:13;12.04;45.03
66594;DHT22;53450;42.584;23.366;2023-03-20T17:28:38;11.72;45.56
66594;DHT22;53450;42.584;23.366;2023-03-20T17:31:08;11.46;45.84
66594;DHT22;53450;42.584;23.366;2023-03-20T17:33:34;11.40;45.34
66594;DHT22;53450;42.584;23.366;2023-03-20T17:36:00;11.46;45.04
66594;DHT22;53450;42.584;23.366;2023-03-20T17:38:26;11.67;45.37
66594;DHT22;53450;42.584;23.366;2023-03-20T17:40:51;11.79;44.20
66594;DHT22;53450;42.584;23.366;2023-03-20T17:43:18;11.73;44.30
66594;DHT22;53450;42.584;23.366;2023-03-20T17:45:45;11.72;43.86
66594;DHT22;53450;42.584;23.366;2023-03-20T17:48:13;11.69;43.95
66594;DHT22;53450;42.584;23.366;2023-03-20T17:50:43;11.67;43.75
66594;DHT22;53450;42.584;23.366;2023-03-20T17:53:14;11.51;43.88
66594;DHT22;53450;42.584;23.366;2023-03-20T17:56:13;11.39;43.82
66594;DHT22;53450;42.584;23.366;2023-03-20T17:58:40;11.31;42.75
66594;DHT22;53450;42.584;23.366;2023-03-20T18:01:09;11.28;42.78
66594;DHT22;53450;42.584;23.366;2023-03-20T18:03:35;11.32;45.72
66594;DHT22;53450;42.584;23.366;2023-03-20T18:08:45;11.10;46.94
66594;DHT22;53450;42.584;23.366;2023-03-20T18:11:11;11.00;46.50
66594;DHT22;53450;42.584;23.366;2023-03-20T18:13:37;10.88;46.83
66594;DHT22;53450;42.584;23.366;2023-03-20T18:16:02;10.68;46.42
66594;DHT22;53450;42.584;23.366;2023-03-20T18:18:28;10.63;47.54
66594;DHT22;53450;42.584;23.366;2023-03-20T18:20:53;10.60;47.14
66594;DHT22;53450;42.584;23.366;2023-03-20T18:23:21;10.59;48.49
66594;DHT22;53450;42.584;23.366;2023-03-20T18:25:47;10.56;48.45
66594;DHT22;53450;42.584;23.366;2023-03-20T18:28:15;10.42;49.00
66594;DHT22;53450;42.584;23.366;2023-03-20T18:30:47;10.30;48.18
66594;DHT22;53450;42.584;23.366;2023-03-20T18:33:14;10.32;48.07
66594;DHT22;53450;42.584;23.366;2023-03-20T18:35:40;10.20;49.45
66594;DHT22;53450;42.584;23.366;2023-03-20T18:38:09;10.20;49.11
66594;DHT22;53450;42.584;23.366;2023-03-20T18:40:36;10.26;49.33
66594;DHT22;53450;42.584;23.366;2023-03-20T18:43:01;10.20;50.65
66594;DHT22;53450;42.584;23.366;2023-03-20T18:45:28;10.16;49.57
66594;DHT22;53450;42.584;23.366;2023-03-20T18:48:23;9.99;50.15
66594;DHT22;53450;42.584;23.366;2023-03-20T18:50:49;10.03;50.38
66594;DHT22;53450;42.584;23.366;2023-03-20T18:53:15;10.13;50.34
66594;DHT22;53450;42.584;23.366;2023-03-20T18:55:40;10.08;52.28
66594;DHT22;53450;42.584;23.366;2023-03-20T18:58:18;9.82;52.75